| time (UTC) | temp F | wind direction | speed MPH | gust MPH | rain 1hr in | rain 24hr in | rain mn in | humidity % | barometer mb |
| 20260505114042 | 51 | 232 | 1.0 | 2.0 | 0.00 | 0.14 | 0.11 | 90 | 1013.2 |
| 20260505113542 | 51 | 232 | 1.0 | 2.0 | 0.00 | 0.14 | 0.11 | 90 | 1013.3 |
| 20260505113044 | 51 | 260 | 0.0 | 2.0 | 0.00 | 0.14 | 0.11 | 90 | 1013.3 |
| 20260505112539 | 51 | 260 | 0.0 | 2.0 | 0.00 | 0.14 | 0.11 | 90 | 1013.4 |
| 20260505112038 | 51 | 260 | 1.0 | 2.0 | 0.00 | 0.14 | 0.11 | 90 | 1013.2 |
| 20260505111544 | 51 | 260 | 0.0 | 2.0 | 0.00 | 0.14 | 0.11 | 91 | 1013.2 |
| 20260505111039 | 51 | 0 | 1.0 | 4.0 | 0.00 | 0.14 | 0.11 | 91 | 1013.2 |
| 20260505110538 | 51 | 260 | 0.0 | 5.0 | 0.00 | 0.14 | 0.11 | 91 | 1013.2 |
| 20260505110158 | 51 | 300 | 1.0 | 5.0 | 0.00 | 0.14 | 0.11 | 91 | 1013.3 |
| 20260505102037 | 51 | 284 | 1.0 | 5.0 | 0.01 | 0.14 | 0.11 | 92 | 1013.2 |
| 20260505101548 | 51 | 263 | 1.0 | 4.0 | 0.01 | 0.14 | 0.11 | 92 | 1013.2 |
| 20260505101038 | 51 | 262 | 2.0 | 4.0 | 0.01 | 0.14 | 0.11 | 92 | 1013.4 |
| 20260505100537 | 51 | 280 | 1.0 | 4.0 | 0.01 | 0.14 | 0.11 | 92 | 1013.4 |
| 20260505100053 | 52 | 300 | 1.0 | 3.0 | 0.01 | 0.14 | 0.11 | 92 | 1013.4 |
| 20260505095538 | 52 | 275 | 1.0 | 3.0 | 0.01 | 0.14 | 0.11 | 92 | 1013.5 |
| 20260505095038 | 52 | 286 | 1.0 | 3.0 | 0.01 | 0.14 | 0.11 | 93 | 1013.4 |
| 20260505094545 | 52 | 0 | 1.0 | 4.0 | 0.02 | 0.14 | 0.11 | 93 | 1013.5 |
| 20260505094038 | 52 | 0 | 0.0 | 4.0 | 0.02 | 0.14 | 0.11 | 93 | 1013.5 |
| 20260505093538 | 52 | 228 | 1.0 | 5.0 | 0.03 | 0.14 | 0.11 | 93 | 1013.5 |
| 20260505093051 | 52 | 252 | 2.0 | 5.0 | 0.04 | 0.14 | 0.11 | 93 | 1013.6 |
| 20260505092538 | 52 | 0 | 0.0 | 2.0 | 0.04 | 0.13 | 0.10 | 93 | 1013.7 |
| 20260505092039 | 51 | 195 | 1.0 | 2.0 | 0.04 | 0.13 | 0.10 | 92 | 1013.8 |
| 20260505091606 | 51 | 195 | 0.0 | 3.0 | 0.04 | 0.13 | 0.10 | 92 | 1013.8 |
| 20260505091037 | 51 | 195 | 1.0 | 3.0 | 0.05 | 0.13 | 0.10 | 92 | 1013.9 |
| 20260505090538 | 51 | 195 | 2.0 | 3.0 | 0.06 | 0.13 | 0.10 | 92 | 1013.9 |
| 20260505090047 | 51 | 195 | 0.0 | 3.0 | 0.07 | 0.13 | 0.10 | 92 | 1013.9 |
| 20260505085541 | 51 | 0 | 1.0 | 3.0 | 0.08 | 0.13 | 0.10 | 92 | 1014.0 |
| 20260505085039 | 51 | 195 | 0.0 | 2.0 | 0.09 | 0.13 | 0.10 | 92 | 1013.9 |
| 20260505084545 | 51 | 0 | 0.0 | 2.0 | 0.08 | 0.12 | 0.09 | 92 | 1013.9 |
| 20260505084038 | 51 | 195 | 1.0 | 2.0 | 0.08 | 0.12 | 0.09 | 91 | 1013.8 |
| 20260505083538 | 51 | 0 | 0.0 | 3.0 | 0.07 | 0.11 | 0.08 | 91 | 1013.8 |
| 20260505083044 | 51 | 0 | 1.0 | 4.0 | 0.06 | 0.09 | 0.06 | 91 | 1013.9 |
| 20260505082538 | 51 | 0 | 1.0 | 4.0 | 0.06 | 0.09 | 0.06 | 91 | 1013.9 |
| 20260505082039 | 51 | 195 | 3.0 | 4.0 | 0.06 | 0.09 | 0.06 | 91 | 1013.9 |
| 20260505081555 | 51 | 195 | 1.0 | 2.0 | 0.06 | 0.09 | 0.06 | 90 | 1013.9 |
| 20260505081038 | 51 | 0 | 0.0 | 2.0 | 0.05 | 0.08 | 0.05 | 90 | 1014.2 |
| 20260505080541 | 51 | 0 | 0.0 | 2.0 | 0.04 | 0.07 | 0.04 | 90 | 1014.2 |
| 20260505075539 | 51 | 195 | 1.0 | 3.0 | 0.02 | 0.05 | 0.02 | 90 | 1014.1 |
| 20260505075036 | 51 | 195 | 2.0 | 3.0 | 0.01 | 0.04 | 0.01 | 90 | 1014.2 |
| 20260505074548 | 51 | 180 | 1.0 | 2.0 | 0.02 | 0.04 | 0.01 | 90 | 1014.3 |
| 20260505074036 | 51 | 0 | 0.0 | 0.0 | 0.02 | 0.04 | 0.01 | 89 | 1014.4 |
| 20260505073537 | 51 | 0 | 0.0 | 1.0 | 0.02 | 0.04 | 0.01 | 89 | 1014.5 |
| 20260505073048 | 51 | 0 | 0.0 | 1.0 | 0.01 | 0.03 | 0.00 | 89 | 1014.5 |
| 20260505072537 | 51 | 0 | 0.0 | 2.0 | 0.01 | 0.03 | 0.00 | 89 | 1014.5 |
| 20260505072036 | 51 | 0 | 0.0 | 2.0 | 0.01 | 0.03 | 0.00 | 89 | 1014.5 |
| 20260505071554 | 51 | 0 | 0.0 | 2.0 | 0.01 | 0.03 | 0.00 | 88 | 1014.5 |
| 20260505071035 | 52 | 0 | 0.0 | 2.0 | 0.01 | 0.03 | 0.00 | 88 | 1014.5 |
| 20260505070537 | 52 | 261 | 0.0 | 2.0 | 0.01 | 0.03 | 0.00 | 88 | 1014.4 |
| 20260505070049 | 51 | 0 | 0.0 | 3.0 | 0.01 | 0.03 | 0.00 | 88 | 1014.3 |
| 20260505065536 | 51 | 0 | 1.0 | 3.0 | 0.02 | 0.03 | 0.03 | 88 | 1014.3 |
| 20260505065037 | 51 | 252 | 0.0 | 4.0 | 0.02 | 0.03 | 0.03 | 88 | 1014.3 |
| 20260505064543 | 51 | 248 | 1.0 | 4.0 | 0.01 | 0.02 | 0.02 | 88 | 1014.2 |
| 20260505064036 | 51 | 274 | 1.0 | 4.0 | 0.01 | 0.02 | 0.02 | 88 | 1014.2 |
| 20260505063536 | 51 | 294 | 0.0 | 5.0 | 0.01 | 0.02 | 0.02 | 88 | 1014.1 |
| 20260505063053 | 51 | 273 | 1.0 | 6.0 | 0.01 | 0.02 | 0.02 | 88 | 1014.1 |
| 20260505062536 | 51 | 343 | 2.0 | 6.0 | 0.01 | 0.02 | 0.02 | 87 | 1014.1 |
| 20260505062035 | 51 | 289 | 2.0 | 6.0 | 0.02 | 0.02 | 0.02 | 88 | 1014.0 |
| 20260505061612 | 52 | 281 | 1.0 | 5.0 | 0.02 | 0.02 | 0.02 | 88 | 1014.2 |
| 20260505061036 | 52 | 288 | 1.0 | 4.0 | 0.02 | 0.02 | 0.02 | 88 | 1014.2 |
| 20260505060536 | 52 | 285 | 1.0 | 4.0 | 0.02 | 0.02 | 0.02 | 88 | 1014.2 |
| 20260505060055 | 52 | 311 | 1.0 | 3.0 | 0.02 | 0.02 | 0.02 | 87 | 1014.2 |
| 20260505055537 | 52 | 355 | 1.0 | 3.0 | 0.01 | 0.01 | 0.01 | 87 | 1014.1 |
| 20260505055041 | 52 | 323 | 1.0 | 3.0 | 0.01 | 0.01 | 0.01 | 87 | 1014.1 |
| 20260505054548 | 52 | 292 | 1.0 | 6.0 | 0.01 | 0.01 | 0.01 | 87 | 1014.1 |
| 20260505054037 | 52 | 340 | 1.0 | 6.0 | 0.01 | 0.01 | 0.01 | 87 | 1014.1 |
| 20260505053537 | 52 | 309 | 1.0 | 5.0 | 0.01 | 0.01 | 0.01 | 86 | 1014.1 |
| 20260505053045 | 52 | 301 | 0.0 | 7.0 | 0.01 | 0.01 | 0.01 | 86 | 1014.1 |
| 20260505052536 | 52 | 291 | 2.0 | 7.0 | 0.01 | 0.01 | 0.01 | 86 | 1014.2 |
| 20260505052037 | 53 | 293 | 1.0 | 7.0 | 0.00 | 0.00 | 0.00 | 86 | 1014.2 |
| 20260505051606 | 53 | 333 | 2.0 | 7.0 | 0.00 | 0.00 | 0.00 | 85 | 1014.4 |
| 20260505051037 | 53 | 339 | 1.0 | 7.0 | 0.00 | 0.00 | 0.00 | 85 | 1014.6 |
| 20260505050537 | 53 | 346 | 1.0 | 7.0 | 0.00 | 0.00 | 0.00 | 84 | 1014.7 |
| 20260505041548 | 53 | 0 | 2.0 | 5.0 | 0.00 | 0.00 | 0.00 | 83 | 1014.4 |
| 20260505041038 | 53 | 329 | 1.0 | 9.0 | 0.00 | 0.00 | 0.00 | 83 | 1014.3 |
| 20260505040538 | 54 | 336 | 1.0 | 9.0 | 0.00 | 0.00 | 0.00 | 84 | 1014.2 |
| 20260505040044 | 54 | 0 | 3.0 | 9.0 | 0.00 | 0.00 | 0.00 | 84 | 1014.1 |
| 20260505035537 | 54 | 335 | 2.0 | 7.0 | 0.00 | 0.00 | 0.00 | 84 | 1013.8 |
| 20260505035037 | 54 | 0 | 1.0 | 5.0 | 0.00 | 0.00 | 0.00 | 84 | 1013.8 |
| 20260505034539 | 54 | 280 | 2.0 | 6.0 | 0.00 | 0.00 | 0.00 | 84 | 1013.8 |
| 20260505034038 | 54 | 323 | 1.0 | 7.0 | 0.00 | 0.00 | 0.00 | 85 | 1013.7 |
| 20260505033538 | 54 | 327 | 2.0 | 7.0 | 0.00 | 0.00 | 0.00 | 85 | 1013.7 |
| 20260505033046 | 54 | 0 | 2.0 | 6.0 | 0.00 | 0.00 | 0.00 | 86 | 1013.7 |
| 20260505032537 | 54 | 328 | 2.0 | 6.0 | 0.00 | 0.00 | 0.00 | 86 | 1013.6 |
| 20260505032037 | 54 | 292 | 2.0 | 7.0 | 0.00 | 0.00 | 0.00 | 86 | 1013.6 |
| 20260505031553 | 54 | 271 | 1.0 | 7.0 | 0.00 | 0.00 | 0.00 | 86 | 1013.6 |
| 20260505031037 | 54 | 276 | 1.0 | 6.0 | 0.00 | 0.00 | 0.00 | 87 | 1013.6 |
| 20260505030541 | 54 | 323 | 2.0 | 6.0 | 0.00 | 0.00 | 0.00 | 87 | 1013.7 |
| 20260505030055 | 55 | 52 | 1.0 | 5.0 | 0.00 | 0.00 | 0.00 | 87 | 1013.6 |
| 20260505025537 | 55 | 303 | 2.0 | 5.0 | 0.00 | 0.00 | 0.00 | 87 | 1013.6 |
| 20260505025037 | 55 | 338 | 1.0 | 5.0 | 0.00 | 0.00 | 0.00 | 87 | 1013.6 |
| 20260505024548 | 55 | 290 | 2.0 | 5.0 | 0.00 | 0.00 | 0.00 | 87 | 1013.7 |
| 20260505024038 | 55 | 346 | 1.0 | 6.0 | 0.00 | 0.00 | 0.00 | 86 | 1013.6 |
| 20260505023538 | 56 | 306 | 2.0 | 6.0 | 0.00 | 0.00 | 0.00 | 86 | 1013.6 |
| 20260505023043 | 56 | 221 | 2.0 | 6.0 | 0.00 | 0.00 | 0.00 | 86 | 1013.5 |
| 20260505022538 | 56 | 310 | 2.0 | 6.0 | 0.00 | 0.00 | 0.00 | 86 | 1013.5 |
| 20260505022038 | 56 | 318 | 2.0 | 6.0 | 0.00 | 0.00 | 0.00 | 86 | 1013.5 |
| 20260505021539 | 56 | 271 | 2.0 | 6.0 | 0.00 | 0.00 | 0.00 | 86 | 1013.5 |
| 20260505021038 | 56 | 261 | 2.0 | 6.0 | 0.00 | 0.00 | 0.00 | 86 | 1013.5 |
| 20260505020538 | 56 | 286 | 2.0 | 6.0 | 0.00 | 0.00 | 0.00 | 85 | 1013.6 |
| 20260505020052 | 56 | 250 | 2.0 | 4.0 | 0.00 | 0.00 | 0.00 | 85 | 1013.7 |
| 20260505015539 | 56 | 257 | 1.0 | 4.0 | 0.00 | 0.00 | 0.00 | 85 | 1013.7 |
| 20260505015038 | 56 | 234 | 2.0 | 7.0 | 0.00 | 0.00 | 0.00 | 85 | 1013.8 |
| 20260505014549 | 56 | 283 | 2.0 | 7.0 | 0.00 | 0.00 | 0.00 | 84 | 1013.9 |
| 20260505014040 | 56 | 238 | 2.0 | 6.0 | 0.00 | 0.00 | 0.00 | 84 | 1013.8 |
| 20260505013537 | 56 | 299 | 2.0 | 6.0 | 0.00 | 0.00 | 0.00 | 84 | 1013.8 |
| 20260505013044 | 56 | 280 | 2.0 | 4.0 | 0.00 | 0.00 | 0.00 | 83 | 1013.8 |
| 20260505012538 | 56 | 242 | 2.0 | 4.0 | 0.00 | 0.00 | 0.00 | 83 | 1013.8 |
| 20260505012037 | 57 | 265 | 1.0 | 4.0 | 0.00 | 0.00 | 0.00 | 83 | 1013.9 |
| 20260505011544 | 57 | 240 | 2.0 | 5.0 | 0.00 | 0.00 | 0.00 | 83 | 1013.9 |
| 20260505011038 | 57 | 301 | 2.0 | 5.0 | 0.00 | 0.00 | 0.00 | 83 | 1013.9 |
| 20260505010537 | 56 | 261 | 2.0 | 5.0 | 0.00 | 0.00 | 0.00 | 83 | 1013.9 |
| 20260505010048 | 57 | 248 | 2.0 | 6.0 | 0.00 | 0.00 | 0.00 | 83 | 1014.0 |
| 20260505005538 | 57 | 253 | 2.0 | 6.0 | 0.00 | 0.00 | 0.00 | 82 | 1014.0 |
| 20260505005037 | 57 | 254 | 2.0 | 6.0 | 0.00 | 0.00 | 0.00 | 82 | 1014.0 |
| 20260505004548 | 57 | 288 | 2.0 | 6.0 | 0.00 | 0.00 | 0.00 | 82 | 1014.0 |
| 20260505004038 | 57 | 231 | 2.0 | 5.0 | 0.00 | 0.00 | 0.00 | 82 | 1014.0 |
| 20260505003538 | 57 | 248 | 3.0 | 4.0 | 0.00 | 0.00 | 0.00 | 82 | 1014.1 |
| 20260505003054 | 57 | 240 | 2.0 | 5.0 | 0.00 | 0.00 | 0.00 | 82 | 1014.2 |
| 20260505002537 | 57 | 231 | 2.0 | 5.0 | 0.00 | 0.00 | 0.00 | 81 | 1014.2 |
| 20260505002038 | 57 | 245 | 1.0 | 5.0 | 0.00 | 0.00 | 0.00 | 81 | 1014.2 |
| 20260505001545 | 57 | 247 | 2.0 | 5.0 | 0.00 | 0.00 | 0.00 | 81 | 1014.2 |
| 20260505001037 | 57 | 232 | 3.0 | 5.0 | 0.00 | 0.00 | 0.00 | 81 | 1014.2 |
| 20260505000537 | 57 | 232 | 2.0 | 5.0 | 0.00 | 0.00 | 0.00 | 80 | 1014.2 |
| 20260505000046 | 57 | 244 | 3.0 | 6.0 | 0.00 | 0.00 | 0.00 | 80 | 1014.2 |
| 20260504235537 | 57 | 246 | 3.0 | 6.0 | 0.00 | 0.00 | 0.00 | 81 | 1014.2 |
| 20260504235037 | 58 | 234 | 2.0 | 7.0 | 0.00 | 0.00 | 0.00 | 81 | 1014.3 |
| 20260504234549 | 57 | 250 | 3.0 | 6.0 | 0.00 | 0.00 | 0.00 | 81 | 1014.1 |
| 20260504234037 | 57 | 216 | 3.0 | 7.0 | 0.00 | 0.00 | 0.00 | 82 | 1014.0 |
| 20260504233540 | 57 | 212 | 3.0 | 7.0 | 0.00 | 0.00 | 0.00 | 83 | 1014.1 |
| 20260504233101 | 57 | 219 | 3.0 | 5.0 | 0.00 | 0.00 | 0.00 | 82 | 1014.1 |
| 20260504232538 | 57 | 234 | 3.0 | 6.0 | 0.00 | 0.00 | 0.00 | 81 | 1014.1 |
| 20260504232037 | 58 | 225 | 3.0 | 7.0 | 0.00 | 0.00 | 0.00 | 81 | 1014.0 |
| 20260504231548 | 58 | 244 | 2.0 | 7.0 | 0.00 | 0.00 | 0.00 | 80 | 1014.1 |
| 20260504231038 | 58 | 260 | 2.0 | 8.0 | 0.00 | 0.00 | 0.00 | 79 | 1014.0 |
| 20260504230535 | 58 | 265 | 3.0 | 8.0 | 0.00 | 0.00 | 0.00 | 79 | 1014.1 |
| 20260504230053 | 58 | 236 | 3.0 | 8.0 | 0.00 | 0.00 | 0.00 | 78 | 1014.1 |
| 20260504225542 | 58 | 216 | 3.0 | 7.0 | 0.00 | 0.00 | 0.00 | 77 | 1014.2 |
| 20260504225037 | 58 | 198 | 4.0 | 7.0 | 0.00 | 0.00 | 0.00 | 77 | 1014.1 |
| 20260504224542 | 58 | 242 | 4.0 | 7.0 | 0.00 | 0.00 | 0.00 | 77 | 1014.2 |
| 20260504224037 | 59 | 228 | 3.0 | 7.0 | 0.00 | 0.00 | 0.00 | 78 | 1014.2 |
| 20260504223537 | 58 | 209 | 3.0 | 7.0 | 0.00 | 0.00 | 0.00 | 76 | 1014.2 |
| 20260504223054 | 58 | 256 | 4.0 | 7.0 | 0.00 | 0.00 | 0.00 | 75 | 1014.2 |
| 20260504222537 | 59 | 248 | 4.0 | 7.0 | 0.00 | 0.00 | 0.00 | 75 | 1014.3 |
| 20260504222038 | 59 | 242 | 3.0 | 6.0 | 0.00 | 0.00 | 0.00 | 75 | 1014.4 |
| 20260504221552 | 59 | 250 | 3.0 | 8.0 | 0.00 | 0.00 | 0.00 | 75 | 1014.4 |
| 20260504221037 | 59 | 227 | 4.0 | 8.0 | 0.00 | 0.00 | 0.00 | 76 | 1014.4 |
| 20260504220537 | 60 | 205 | 4.0 | 7.0 | 0.00 | 0.00 | 0.00 | 77 | 1014.4 |
| 20260504220052 | 59 | 188 | 3.0 | 7.0 | 0.00 | 0.00 | 0.00 | 77 | 1014.4 |
| 20260504215538 | 60 | 247 | 3.0 | 5.0 | 0.00 | 0.00 | 0.00 | 78 | 1014.4 |
| 20260504215037 | 59 | 248 | 3.0 | 5.0 | 0.00 | 0.00 | 0.00 | 78 | 1014.5 |
| 20260504214545 | 59 | 246 | 2.0 | 5.0 | 0.00 | 0.00 | 0.00 | 76 | 1014.4 |
| 20260504214040 | 59 | 249 | 2.0 | 5.0 | 0.00 | 0.00 | 0.00 | 75 | 1014.4 |
| 20260504213540 | 60 | 219 | 2.0 | 7.0 | 0.00 | 0.00 | 0.00 | 75 | 1014.4 |
| 20260504213047 | 60 | 244 | 3.0 | 7.0 | 0.00 | 0.00 | 0.00 | 74 | 1014.4 |
| 20260504212538 | 60 | 239 | 3.0 | 6.0 | 0.00 | 0.00 | 0.00 | 73 | 1014.3 |
| 20260504212038 | 60 | 285 | 2.0 | 7.0 | 0.00 | 0.00 | 0.00 | 73 | 1014.3 |
| 20260504211546 | 60 | 252 | 3.0 | 7.0 | 0.00 | 0.00 | 0.00 | 73 | 1014.4 |
| 20260504211037 | 60 | 229 | 3.0 | 7.0 | 0.00 | 0.00 | 0.00 | 74 | 1014.4 |
| 20260504210540 | 60 | 216 | 3.0 | 7.0 | 0.00 | 0.00 | 0.00 | 73 | 1014.5 |
| 20260504210059 | 61 | 235 | 3.0 | 8.0 | 0.00 | 0.00 | 0.00 | 73 | 1014.5 |
| 20260504205537 | 61 | 284 | 2.0 | 8.0 | 0.00 | 0.00 | 0.00 | 72 | 1014.5 |
| 20260504205038 | 60 | 238 | 4.0 | 6.0 | 0.00 | 0.00 | 0.00 | 73 | 1014.5 |
| 20260504204549 | 60 | 246 | 3.0 | 7.0 | 0.00 | 0.00 | 0.00 | 73 | 1014.5 |
| 20260504204036 | 61 | 252 | 3.0 | 7.0 | 0.00 | 0.00 | 0.00 | 70 | 1014.6 |
| 20260504203537 | 62 | 298 | 3.0 | 7.0 | 0.00 | 0.00 | 0.00 | 76 | 1014.5 |
| 20260504203055 | 60 | 283 | 3.0 | 6.0 | 0.00 | 0.00 | 0.00 | 78 | 1014.5 |
| 20260504202537 | 60 | 252 | 2.0 | 6.0 | 0.00 | 0.00 | 0.00 | 77 | 1014.5 |
| 20260504202036 | 60 | 239 | 3.0 | 6.0 | 0.00 | 0.00 | 0.00 | 75 | 1014.4 |
| 20260504201547 | 61 | 245 | 3.0 | 8.0 | 0.00 | 0.00 | 0.00 | 75 | 1014.4 |
| 20260504201037 | 61 | 209 | 4.0 | 8.0 | 0.00 | 0.00 | 0.00 | 76 | 1014.5 |
| 20260504200537 | 60 | 298 | 3.0 | 8.0 | 0.00 | 0.00 | 0.00 | 77 | 1014.5 |
| 20260504200045 | 60 | 316 | 2.0 | 7.0 | 0.00 | 0.00 | 0.00 | 76 | 1014.6 |
| 20260504195538 | 60 | 264 | 3.0 | 7.0 | 0.00 | 0.00 | 0.00 | 75 | 1014.6 |
| 20260504195036 | 61 | 242 | 3.0 | 6.0 | 0.00 | 0.00 | 0.00 | 75 | 1014.6 |
| 20260504194545 | 61 | 246 | 3.0 | 8.0 | 0.00 | 0.00 | 0.00 | 74 | 1014.6 |
| 20260504194040 | 60 | 284 | 3.0 | 8.0 | 0.00 | 0.00 | 0.00 | 74 | 1014.6 |
| 20260504193538 | 60 | 259 | 3.0 | 8.0 | 0.00 | 0.00 | 0.00 | 76 | 1014.5 |
| 20260504193043 | 60 | 246 | 3.0 | 9.0 | 0.00 | 0.00 | 0.00 | 75 | 1014.5 |
| 20260504192541 | 60 | 271 | 5.0 | 9.0 | 0.00 | 0.00 | 0.00 | 75 | 1014.5 |
| 20260504192041 | 60 | 296 | 3.0 | 9.0 | 0.00 | 0.00 | 0.00 | 76 | 1014.6 |
| 20260504191543 | 60 | 259 | 5.0 | 9.0 | 0.00 | 0.00 | 0.00 | 76 | 1014.6 |
| 20260504191037 | 60 | 261 | 3.0 | 9.0 | 0.00 | 0.00 | 0.00 | 74 | 1014.6 |
| 20260504190539 | 60 | 258 | 3.0 | 8.0 | 0.00 | 0.00 | 0.00 | 76 | 1014.6 |
| 20260504190107 | 60 | 277 | 3.0 | 8.0 | 0.00 | 0.00 | 0.00 | 77 | 1014.6 |
| 20260504185538 | 60 | 281 | 4.0 | 8.0 | 0.00 | 0.00 | 0.00 | 79 | 1014.6 |
| 20260504185036 | 59 | 247 | 3.0 | 5.0 | 0.00 | 0.00 | 0.00 | 80 | 1014.5 |
| 20260504184545 | 58 | 256 | 2.0 | 5.0 | 0.00 | 0.00 | 0.00 | 81 | 1014.5 |
| 20260504184041 | 58 | 248 | 3.0 | 5.0 | 0.00 | 0.00 | 0.00 | 80 | 1014.5 |
| 20260504183537 | 59 | 243 | 2.0 | 5.0 | 0.00 | 0.00 | 0.00 | 82 | 1014.5 |
| 20260504183045 | 58 | 228 | 2.0 | 5.0 | 0.00 | 0.00 | 0.00 | 84 | 1014.5 |
| 20260504182536 | 57 | 242 | 3.0 | 5.0 | 0.00 | 0.00 | 0.00 | 83 | 1014.4 |
| 20260504182038 | 57 | 238 | 2.0 | 5.0 | 0.00 | 0.00 | 0.00 | 83 | 1014.5 |
| 20260504181544 | 57 | 231 | 2.0 | 5.0 | 0.00 | 0.00 | 0.00 | 83 | 1014.4 |
| 20260504181037 | 57 | 202 | 1.0 | 4.0 | 0.00 | 0.00 | 0.00 | 84 | 1014.5 |
| 20260504180539 | 57 | 239 | 1.0 | 4.0 | 0.00 | 0.00 | 0.00 | 83 | 1014.5 |
| 20260504180052 | 57 | 241 | 2.0 | 4.0 | 0.00 | 0.00 | 0.00 | 83 | 1014.4 |
| 20260504175537 | 58 | 242 | 2.0 | 5.0 | 0.00 | 0.00 | 0.00 | 83 | 1014.3 |
| 20260504175037 | 57 | 258 | 2.0 | 5.0 | 0.00 | 0.00 | 0.00 | 84 | 1014.2 |
| 20260504174553 | 57 | 252 | 2.0 | 5.0 | 0.00 | 0.00 | 0.00 | 84 | 1014.2 |
| 20260504174037 | 57 | 250 | 3.0 | 5.0 | 0.00 | 0.00 | 0.00 | 84 | 1014.2 |
| 20260504173536 | 57 | 250 | 2.0 | 6.0 | 0.00 | 0.00 | 0.00 | 84 | 1014.2 |
| 20260504173044 | 57 | 225 | 3.0 | 8.0 | 0.00 | 0.00 | 0.00 | 84 | 1014.1 |
| 20260504172537 | 58 | 248 | 3.0 | 8.0 | 0.00 | 0.00 | 0.00 | 84 | 1014.0 |
| 20260504172036 | 58 | 241 | 5.0 | 8.0 | 0.00 | 0.00 | 0.00 | 83 | 1013.8 |
| 20260504171546 | 58 | 238 | 4.0 | 9.0 | 0.00 | 0.00 | 0.00 | 83 | 1013.8 |
| 20260504171040 | 58 | 237 | 3.0 | 9.0 | 0.00 | 0.00 | 0.00 | 83 | 1013.7 |
| 20260504170537 | 57 | 234 | 4.0 | 8.0 | 0.00 | 0.00 | 0.00 | 83 | 1013.7 |
| 20260504151037 | 55 | 192 | 2.0 | 4.0 | 0.00 | 0.00 | 0.00 | 86 | 1013.5 |
| 20260504150537 | 55 | 238 | 1.0 | 2.0 | 0.00 | 0.00 | 0.00 | 87 | 1013.6 |
| 20260504141038 | 53 | 42 | 0.0 | 1.0 | 0.00 | 0.00 | 0.00 | 90 | 1013.3 |
| 20260504140538 | 53 | 42 | 0.0 | 1.0 | 0.00 | 0.00 | 0.00 | 90 | 1013.3 |
| 20260504130537 | 52 | 192 | 1.0 | 4.0 | 0.00 | 0.00 | 0.00 | 90 | 1013.1 |